createdAt,value
2022-10-13T00:00:53.096Z,13.70
2022-10-13T00:03:21.305Z,13.61
2022-10-13T00:05:51.889Z,13.68
2022-10-13T00:08:22.417Z,13.64
2022-10-13T00:10:52.678Z,13.64
2022-10-13T00:13:22.006Z,13.65
2022-10-13T00:15:50.377Z,13.68
2022-10-13T00:18:18.579Z,13.63
2022-10-13T00:20:49.182Z,13.61
2022-10-13T00:23:18.536Z,13.68
2022-10-13T00:25:48.154Z,13.63
2022-10-13T00:28:19.703Z,13.67
2022-10-13T00:30:48.866Z,13.73
2022-10-13T00:33:16.999Z,13.65
2022-10-13T00:35:47.380Z,13.69
2022-10-13T00:38:17.081Z,13.67
2022-10-13T00:40:46.740Z,13.60
2022-10-13T00:43:27.716Z,13.62
2022-10-13T00:45:56.153Z,13.61
2022-10-13T00:48:28.756Z,13.64
2022-10-13T00:50:58.332Z,13.64
2022-10-13T00:53:31.780Z,13.64
2022-10-13T00:56:00.495Z,13.76
2022-10-13T00:58:32.926Z,13.60
2022-10-13T01:01:02.098Z,13.60
2022-10-13T01:03:30.323Z,13.60
2022-10-13T01:06:01.917Z,13.58
2022-10-13T01:08:30.747Z,13.59
2022-10-13T01:11:10.064Z,13.62
2022-10-13T01:13:45.812Z,13.67
2022-10-13T01:16:23.673Z,13.67
2022-10-13T01:18:58.266Z,13.58
2022-10-13T01:21:32.432Z,13.45
2022-10-13T01:24:31.420Z,13.53
2022-10-13T01:27:19.391Z,13.52
2022-10-13T01:30:06.452Z,13.56
2022-10-13T01:32:45.078Z,13.50
2022-10-13T01:35:17.777Z,13.50
2022-10-13T01:37:54.135Z,13.50
2022-10-13T01:40:27.389Z,13.55
2022-10-13T01:43:00.465Z,13.51
2022-10-13T01:45:37.582Z,13.46
2022-10-13T01:48:09.057Z,13.43
2022-10-13T01:50:38.404Z,13.34
2022-10-13T01:53:08.030Z,13.36
2022-10-13T01:55:36.172Z,13.38
2022-10-13T01:58:04.284Z,13.40
2022-10-13T02:00:42.476Z,13.44
2022-10-13T02:03:21.575Z,13.35
2022-10-13T02:05:59.215Z,13.37
2022-10-13T02:08:32.908Z,13.39
2022-10-13T02:11:11.052Z,13.32
2022-10-13T02:13:45.567Z,13.37
2022-10-13T02:16:17.086Z,13.41
2022-10-13T02:18:45.906Z,13.34
2022-10-13T02:21:14.070Z,13.38
2022-10-13T02:23:44.207Z,13.40
2022-10-13T02:26:12.854Z,13.35
2022-10-13T02:28:41.907Z,13.28
2022-10-13T02:31:10.657Z,13.29
2022-10-13T02:33:40.108Z,13.32
2022-10-13T02:36:08.284Z,13.40
2022-10-13T02:38:36.490Z,13.30
2022-10-13T02:41:04.623Z,13.33
2022-10-13T02:43:33.932Z,13.34
2022-10-13T02:46:02.307Z,13.42
2022-10-13T02:48:33.236Z,13.41
2022-10-13T02:51:02.739Z,13.28
2022-10-13T02:53:30.836Z,13.18
2022-10-13T02:55:59.687Z,13.24
2022-10-13T02:58:27.920Z,13.19
2022-10-13T03:00:56.008Z,13.03
2022-10-13T03:03:24.343Z,13.12
2022-10-13T03:05:52.590Z,13.19
2022-10-13T03:08:22.116Z,13.23
2022-10-13T03:10:50.288Z,13.27
2022-10-13T03:13:19.605Z,13.30
2022-10-13T03:15:48.403Z,13.27
2022-10-13T03:18:16.492Z,13.30
2022-10-13T03:20:44.929Z,13.36
2022-10-13T03:23:13.118Z,13.32
2022-10-13T03:25:42.767Z,13.37
2022-10-13T03:28:10.894Z,13.38
2022-10-13T03:30:39.048Z,13.48
2022-10-13T03:33:07.250Z,13.44
2022-10-13T03:35:35.299Z,13.39
2022-10-13T03:38:03.380Z,13.43
2022-10-13T03:40:31.500Z,13.37
2022-10-13T03:43:00.951Z,13.42
2022-10-13T03:45:31.403Z,13.38
2022-10-13T03:47:59.722Z,13.33
2022-10-13T03:50:27.933Z,13.32
2022-10-13T03:52:56.159Z,13.35
2022-10-13T03:55:24.845Z,13.32
2022-10-13T03:57:53.059Z,13.40
2022-10-13T04:00:23.319Z,13.18
2022-10-13T04:02:51.739Z,13.23
2022-10-13T04:05:19.877Z,13.14
2022-10-13T04:07:47.953Z,13.08
2022-10-13T04:10:16.096Z,13.12
2022-10-13T04:12:44.411Z,13.08
2022-10-13T04:15:12.908Z,12.94
2022-10-13T04:17:42.381Z,12.98
2022-10-13T04:20:11.731Z,12.81
2022-10-13T04:22:39.868Z,12.89
2022-10-13T04:25:09.166Z,12.86
2022-10-13T04:27:38.545Z,12.85
2022-10-13T04:30:08.072Z,12.79
2022-10-13T04:32:36.200Z,12.74
2022-10-13T04:35:06.665Z,12.77
2022-10-13T04:37:34.743Z,12.85
2022-10-13T04:40:02.886Z,12.85
2022-10-13T04:42:31.022Z,12.86
2022-10-13T04:44:59.106Z,12.80
2022-10-13T04:47:27.249Z,12.90
2022-10-13T04:49:55.370Z,12.85
2022-10-13T04:52:24.870Z,12.97
2022-10-13T04:54:52.941Z,13.04
2022-10-13T04:57:21.426Z,13.18
2022-10-13T04:59:50.039Z,13.20
2022-10-13T05:02:18.823Z,13.37
2022-10-13T05:04:47.339Z,13.32
2022-10-13T05:07:18.337Z,13.41
2022-10-13T05:09:48.277Z,13.45
2022-10-13T05:12:16.820Z,13.54
2022-10-13T05:14:45.438Z,13.65
2022-10-13T05:17:13.528Z,13.75
2022-10-13T05:19:41.717Z,13.84
2022-10-13T05:22:10.194Z,14.09
2022-10-13T05:24:38.641Z,14.38
2022-10-13T05:27:11.204Z,14.49
2022-10-13T05:29:39.956Z,14.64
2022-10-13T05:32:09.296Z,14.60
2022-10-13T05:34:37.362Z,14.58
2022-10-13T05:37:05.737Z,14.56
2022-10-13T05:39:33.993Z,14.54
2022-10-13T05:42:02.132Z,14.69
2022-10-13T05:44:31.751Z,14.93
2022-10-13T05:47:03.662Z,15.07
2022-10-13T05:49:36.493Z,15.41
2022-10-13T05:52:10.366Z,15.79
2022-10-13T05:54:41.853Z,15.96
2022-10-13T05:57:17.140Z,15.71
2022-10-13T05:59:53.099Z,15.48
2022-10-13T06:02:24.213Z,15.63
2022-10-13T06:04:55.779Z,16.02
2022-10-13T06:07:24.362Z,16.34
2022-10-13T06:09:53.027Z,16.76
2022-10-13T06:12:21.411Z,16.39
2022-10-13T06:14:51.180Z,16.42
2022-10-13T06:17:19.400Z,16.56
2022-10-13T06:19:47.511Z,16.87
2022-10-13T06:22:15.957Z,16.87
2022-10-13T06:24:44.075Z,16.68
2022-10-13T06:27:12.771Z,16.65
2022-10-13T06:29:41.178Z,16.54
2022-10-13T06:32:10.766Z,16.30
2022-10-13T06:34:39.205Z,16.41
2022-10-13T06:37:07.434Z,16.53
2022-10-13T06:39:35.599Z,16.60
2022-10-13T06:42:03.774Z,16.58
2022-10-13T06:44:32.909Z,16.45
2022-10-13T06:47:01.146Z,16.48
2022-10-13T06:49:30.705Z,16.27
2022-10-13T06:51:58.828Z,16.22
2022-10-13T06:54:26.913Z,16.26
2022-10-13T06:56:55.062Z,16.25
2022-10-13T06:59:23.410Z,16.32
2022-10-13T07:01:51.947Z,16.36
2022-10-13T07:04:20.111Z,16.27
2022-10-13T07:06:50.416Z,16.36
2022-10-13T07:09:20.139Z,16.49
2022-10-13T07:11:49.620Z,16.36
2022-10-13T07:14:17.848Z,16.36
2022-10-13T07:16:45.949Z,16.46
2022-10-13T07:19:14.147Z,16.60
2022-10-13T07:21:42.445Z,16.81
2022-10-13T07:24:12.880Z,16.71
2022-10-13T07:26:40.975Z,16.80
2022-10-13T07:29:09.825Z,16.57
2022-10-13T07:31:37.911Z,16.58
2022-10-13T07:34:06.808Z,16.77
2022-10-13T07:36:35.599Z,16.90
2022-10-13T07:39:04.152Z,17.07
2022-10-13T07:41:34.619Z,16.95
2022-10-13T07:44:02.765Z,17.11
2022-10-13T07:46:30.907Z,17.20
2022-10-13T07:49:00.390Z,17.08
2022-10-13T07:51:28.446Z,16.95
2022-10-13T07:53:56.575Z,16.92
2022-10-13T07:56:24.915Z,17.13
2022-10-13T07:58:54.583Z,17.18
2022-10-13T08:01:22.712Z,17.25
2022-10-13T08:03:50.946Z,17.58
2022-10-13T08:06:19.078Z,17.56
2022-10-13T08:08:47.390Z,17.15
2022-10-13T08:11:17.412Z,16.89
2022-10-13T08:13:49.116Z,17.21
2022-10-13T08:16:19.163Z,17.36
2022-10-13T08:18:47.879Z,17.22
2022-10-13T08:21:56.766Z,17.26
2022-10-13T08:24:06.940Z,17.22
2022-10-13T08:26:35.270Z,17.26
2022-10-13T08:29:20.832Z,17.25
2022-10-13T08:31:52.024Z,17.21
2022-10-13T08:34:20.484Z,17.27
2022-10-13T08:36:48.961Z,17.22
2022-10-13T08:39:17.140Z,17.52
2022-10-13T08:41:45.932Z,17.76
2022-10-13T08:47:19.759Z,17.53
2022-10-13T08:49:47.895Z,17.47
2022-10-13T08:52:20.972Z,17.42
2022-10-13T08:54:49.605Z,17.48
2022-10-13T08:57:18.793Z,17.35
2022-10-13T08:59:47.834Z,17.25
2022-10-13T09:02:25.143Z,17.28
2022-10-13T09:04:54.754Z,17.41
2022-10-13T09:07:27.821Z,17.44
2022-10-13T09:09:56.751Z,17.44
2022-10-13T09:12:26.080Z,17.60
2022-10-13T09:15:05.182Z,17.65
2022-10-13T09:17:35.759Z,17.41
2022-10-13T09:20:08.479Z,17.49
2022-10-13T09:22:37.782Z,17.82
2022-10-13T09:25:20.010Z,17.76
2022-10-13T09:27:51.247Z,17.91
2022-10-13T09:30:35.082Z,17.73
2022-10-13T09:33:24.224Z,17.54
2022-10-13T09:36:11.896Z,17.78
2022-10-13T09:38:41.704Z,17.40
2022-10-13T09:41:17.984Z,17.64
2022-10-13T09:44:01.389Z,17.92
2022-10-13T09:46:32.877Z,18.14
2022-10-13T09:49:06.249Z,18.08
2022-10-13T09:51:38.853Z,18.20
2022-10-13T09:54:08.379Z,18.05
2022-10-13T09:56:42.896Z,17.90
2022-10-13T09:59:22.982Z,17.86
2022-10-13T10:01:54.321Z,18.19
2022-10-13T10:04:27.807Z,18.44
2022-10-13T10:06:56.369Z,18.44
2022-10-13T10:09:35.564Z,18.33
2022-10-13T10:12:05.369Z,18.04
2022-10-13T10:14:35.474Z,18.15
2022-10-13T10:17:14.083Z,18.35
2022-10-13T10:19:59.866Z,18.47
2022-10-13T10:22:38.820Z,18.55
2022-10-13T10:25:23.611Z,18.59
2022-10-13T10:28:04.459Z,18.41
2022-10-13T10:30:35.279Z,18.51
2022-10-13T10:33:08.777Z,18.52
2022-10-13T10:35:46.557Z,18.61
2022-10-13T10:38:30.463Z,18.67
2022-10-13T10:41:06.317Z,18.71
2022-10-13T10:43:50.819Z,18.52
2022-10-13T10:46:23.998Z,18.50
2022-10-13T10:48:56.157Z,18.28
2022-10-13T10:51:32.205Z,18.22
2022-10-13T10:54:10.920Z,18.38
2022-10-13T10:56:41.878Z,18.55
2022-10-13T10:59:23.890Z,18.69
2022-10-13T11:02:03.501Z,18.71
2022-10-13T11:04:41.450Z,18.62
2022-10-13T11:07:16.002Z,18.84
2022-10-13T11:10:05.144Z,18.66
2022-10-13T11:13:22.427Z,18.78
2022-10-13T11:15:50.983Z,18.98
2022-10-13T11:19:05.922Z,18.76
2022-10-13T11:22:23.850Z,18.50
2022-10-13T11:25:12.850Z,18.69
2022-10-13T11:27:43.062Z,18.72
2022-10-13T11:30:47.549Z,18.64
2022-10-13T11:33:52.764Z,18.73
2022-10-13T11:36:56.806Z,18.74
2022-10-13T11:40:06.627Z,18.80
2022-10-13T11:43:05.269Z,18.95
2022-10-13T11:46:24.115Z,18.70
2022-10-13T11:49:40.210Z,18.47
2022-10-13T11:52:23.787Z,18.78
2022-10-13T11:54:56.601Z,18.80
2022-10-13T11:57:29.326Z,18.44
2022-10-13T11:59:58.230Z,18.53
2022-10-13T12:02:28.448Z,18.49
2022-10-13T12:05:06.976Z,17.83
2022-10-13T12:07:38.160Z,17.96
2022-10-13T12:10:16.223Z,17.96
2022-10-13T12:12:50.912Z,17.96
2022-10-13T12:15:32.488Z,18.39
2022-10-13T12:18:00.926Z,18.63
2022-10-13T12:20:31.171Z,18.83
2022-10-13T12:22:59.730Z,18.34
2022-10-13T12:25:31.166Z,17.80
2022-10-13T12:28:01.932Z,18.18
2022-10-13T12:30:31.823Z,17.99
2022-10-13T12:33:01.424Z,17.85
2022-10-13T12:35:31.971Z,17.60
2022-10-13T12:38:03.770Z,17.56
2022-10-13T12:40:32.224Z,17.62
2022-10-13T12:43:02.540Z,17.45
2022-10-13T12:45:34.168Z,17.70
2022-10-13T12:48:02.461Z,17.99
2022-10-13T12:50:37.350Z,17.97
2022-10-13T12:53:13.486Z,18.02
2022-10-13T12:55:50.760Z,17.85
2022-10-13T12:58:29.768Z,17.88
2022-10-13T13:01:04.319Z,18.05
2022-10-13T13:03:32.582Z,17.83
2022-10-13T13:06:22.621Z,17.71
2022-10-13T13:09:29.233Z,17.51
2022-10-13T13:12:22.735Z,17.38
2022-10-13T13:14:55.293Z,17.22
2022-10-13T13:20:27.551Z,17.03
2022-10-13T13:22:56.178Z,16.99
2022-10-13T13:25:25.161Z,17.23
2022-10-13T13:27:54.110Z,17.24
2022-10-13T13:30:25.220Z,17.15
2022-10-13T13:32:53.349Z,17.11
2022-10-13T13:35:21.483Z,17.15
2022-10-13T13:37:51.469Z,17.22
2022-10-13T13:40:21.748Z,17.15
2022-10-13T13:42:50.185Z,17.29
2022-10-13T13:45:20.603Z,17.34
2022-10-13T13:47:50.513Z,17.18
2022-10-13T13:50:22.986Z,17.05
2022-10-13T13:52:51.171Z,16.99
2022-10-13T13:55:19.626Z,16.77
2022-10-13T13:57:47.679Z,16.89
2022-10-13T14:00:17.207Z,16.83
2022-10-13T14:02:46.340Z,16.90
2022-10-13T14:05:19.256Z,16.86
2022-10-13T14:07:47.455Z,16.80
2022-10-13T14:10:15.701Z,16.68
2022-10-13T14:12:44.506Z,16.68
2022-10-13T14:15:12.758Z,16.63
2022-10-13T14:17:41.058Z,16.62
2022-10-13T14:20:11.451Z,16.63
2022-10-13T14:22:41.130Z,16.54
2022-10-13T14:25:10.422Z,16.47
2022-10-13T14:27:38.815Z,16.38
2022-10-13T14:30:08.565Z,16.42
2022-10-13T14:32:38.797Z,16.37
2022-10-13T14:35:07.838Z,16.20
2022-10-13T14:37:36.265Z,16.12
2022-10-13T14:40:06.823Z,16.12
2022-10-13T14:42:35.443Z,16.11
2022-10-13T14:45:06.673Z,16.12
2022-10-13T14:47:35.108Z,16.13
2022-10-13T14:50:03.161Z,16.07
2022-10-13T14:52:31.237Z,16.01
2022-10-13T14:54:59.297Z,15.99
2022-10-13T14:57:29.009Z,15.99
2022-10-13T15:00:01.704Z,15.95
2022-10-13T15:02:30.640Z,15.79
2022-10-13T15:04:59.120Z,15.77
2022-10-13T15:07:27.593Z,15.72
2022-10-13T15:10:10.981Z,15.69
2022-10-13T15:12:40.438Z,15.53
2022-10-13T15:15:09.352Z,15.48
2022-10-13T15:17:38.107Z,15.35
2022-10-13T15:20:07.527Z,15.26
2022-10-13T15:22:35.888Z,15.19
2022-10-13T15:25:07.855Z,15.13
2022-10-13T15:27:40.845Z,15.12
2022-10-13T15:30:12.875Z,15.00
2022-10-13T15:32:41.081Z,14.96
2022-10-13T15:35:09.863Z,14.89
2022-10-13T15:37:38.107Z,14.88
2022-10-13T15:40:08.016Z,14.84
2022-10-13T15:42:36.404Z,14.81
2022-10-13T15:45:09.843Z,14.74
2022-10-13T15:47:40.350Z,14.73
2022-10-13T15:50:12.076Z,14.69
2022-10-13T15:52:40.989Z,14.68
2022-10-13T15:55:10.389Z,14.69
2022-10-13T15:57:38.590Z,14.69
2022-10-13T16:00:09.229Z,14.64
2022-10-13T16:02:37.482Z,14.62
2022-10-13T16:05:09.034Z,14.63
2022-10-13T16:07:37.244Z,14.64
2022-10-13T16:10:08.100Z,14.58
2022-10-13T16:12:36.288Z,14.54
2022-10-13T16:15:04.393Z,14.53
2022-10-13T16:17:32.811Z,14.51
2022-10-13T16:20:01.131Z,14.49
2022-10-13T16:22:31.034Z,14.49
2022-10-13T16:24:59.202Z,14.57
2022-10-13T16:27:31.114Z,14.60
2022-10-13T16:29:59.244Z,14.57
2022-10-13T16:32:27.464Z,14.54
2022-10-13T16:34:55.483Z,14.54
2022-10-13T16:37:24.111Z,14.54
2022-10-13T16:39:53.787Z,14.54
2022-10-13T16:42:21.879Z,14.52
2022-10-13T16:44:50.071Z,14.48
2022-10-13T16:47:18.846Z,14.47
2022-10-13T16:49:47.481Z,14.40
2022-10-13T16:52:15.612Z,14.35
2022-10-13T16:54:43.838Z,14.42
2022-10-13T16:57:13.324Z,14.45
2022-10-13T16:59:41.804Z,14.51
2022-10-13T17:02:15.547Z,14.46
2022-10-13T17:04:43.869Z,14.44
2022-10-13T17:07:12.067Z,14.38
2022-10-13T17:09:40.459Z,14.41
2022-10-13T17:12:08.985Z,14.32
2022-10-13T17:14:38.544Z,14.27
2022-10-13T17:17:06.714Z,14.24
2022-10-13T17:19:35.189Z,14.27
2022-10-13T17:22:03.317Z,14.11
2022-10-13T17:24:31.395Z,14.14
2022-10-13T17:26:59.507Z,14.15
2022-10-13T17:29:27.790Z,14.06
2022-10-13T17:31:57.369Z,13.96
2022-10-13T17:34:25.419Z,14.00
2022-10-13T17:36:53.711Z,13.93
2022-10-13T17:39:21.867Z,13.96
2022-10-13T17:41:50.121Z,13.91
2022-10-13T17:44:20.774Z,13.95
2022-10-13T17:46:49.745Z,14.08
2022-10-13T17:49:19.616Z,14.03
2022-10-13T17:51:51.024Z,14.07
2022-10-13T17:54:19.971Z,13.98
2022-10-13T17:56:48.970Z,13.91
2022-10-13T17:59:18.311Z,13.96
2022-10-13T18:01:46.777Z,13.89
2022-10-13T18:04:16.846Z,13.93
2022-10-13T18:06:47.246Z,13.87
2022-10-13T18:09:18.121Z,13.79
2022-10-13T18:11:50.715Z,13.76
2022-10-13T18:14:19.784Z,13.72
2022-10-13T18:16:48.938Z,13.73
2022-10-13T18:19:17.116Z,13.68
2022-10-13T18:21:46.731Z,13.57
2022-10-13T18:24:15.097Z,13.59
2022-10-13T18:26:43.187Z,13.62
2022-10-13T18:29:13.213Z,13.59
2022-10-13T18:31:42.723Z,13.57
2022-10-13T18:34:14.240Z,13.60
2022-10-13T18:36:44.955Z,13.56
2022-10-13T18:39:16.756Z,13.52
2022-10-13T18:41:45.174Z,13.52
2022-10-13T18:44:13.375Z,13.44
2022-10-13T18:46:41.963Z,13.50
2022-10-13T18:49:13.554Z,13.56
2022-10-13T18:51:42.101Z,13.55
2022-10-13T18:54:10.479Z,13.51
2022-10-13T18:56:40.515Z,13.62
2022-10-13T18:59:10.014Z,13.58
2022-10-13T19:01:40.867Z,13.49
2022-10-13T19:04:09.953Z,13.49
2022-10-13T19:06:38.993Z,13.52
2022-10-13T19:09:08.582Z,13.52
2022-10-13T19:11:37.669Z,13.60
2022-10-13T19:14:11.081Z,13.51
2022-10-13T19:16:40.978Z,13.57
2022-10-13T19:19:09.610Z,13.50
2022-10-13T19:21:38.388Z,13.53
2022-10-13T19:24:07.322Z,13.45
2022-10-13T19:26:37.055Z,13.53
2022-10-13T19:29:09.200Z,13.48
2022-10-13T19:31:38.563Z,13.54
2022-10-13T19:34:06.703Z,13.45
2022-10-13T19:36:37.757Z,13.41
2022-10-13T19:39:10.851Z,13.49
2022-10-13T19:41:42.278Z,13.43
2022-10-13T19:44:12.045Z,13.45
2022-10-13T19:46:40.779Z,13.53
2022-10-13T19:49:08.984Z,13.53
2022-10-13T19:51:38.038Z,13.55
2022-10-13T19:54:06.493Z,13.49
2022-10-13T19:56:34.643Z,13.48
2022-10-13T19:59:04.415Z,13.52
2022-10-13T20:01:39.913Z,13.60
2022-10-13T20:04:08.615Z,13.52
2022-10-13T20:06:37.286Z,13.51
2022-10-13T20:09:05.534Z,13.50
2022-10-13T20:11:33.997Z,13.52
2022-10-13T20:14:02.242Z,13.53
2022-10-13T20:16:30.451Z,13.57
2022-10-13T20:19:01.610Z,13.64
2022-10-13T20:21:30.441Z,13.64
2022-10-13T20:23:59.007Z,13.58
2022-10-13T20:26:27.382Z,13.54
2022-10-13T20:28:55.829Z,13.62
2022-10-13T20:31:24.386Z,13.64
2022-10-13T20:33:56.022Z,13.60
2022-10-13T20:36:26.932Z,13.62
2022-10-13T20:38:55.506Z,13.56
2022-10-13T20:41:25.674Z,13.70
2022-10-13T20:43:56.014Z,13.83
2022-10-13T20:46:24.839Z,13.76
2022-10-13T20:49:11.399Z,13.70
2022-10-13T20:51:42.118Z,13.66
2022-10-13T20:54:10.666Z,13.66
2022-10-13T20:56:38.954Z,13.58
2022-10-13T20:59:09.523Z,13.55
2022-10-13T21:01:38.392Z,13.53
2022-10-13T21:04:06.669Z,13.57
2022-10-13T21:06:36.116Z,13.54
2022-10-13T21:09:06.845Z,13.61
2022-10-13T21:11:35.923Z,13.57
2022-10-13T21:14:09.581Z,13.54
2022-10-13T21:16:38.707Z,13.52
2022-10-13T21:19:06.940Z,13.47
2022-10-13T21:21:36.358Z,13.57
2022-10-13T21:24:08.182Z,13.53
2022-10-13T21:26:36.613Z,13.59
2022-10-13T21:29:04.811Z,13.61
2022-10-13T21:31:32.922Z,13.59
2022-10-13T21:34:01.259Z,13.54
2022-10-13T21:36:30.919Z,13.63
2022-10-13T21:39:01.280Z,13.68
2022-10-13T21:41:31.682Z,13.69
2022-10-13T21:43:59.999Z,13.68
2022-10-13T21:46:29.776Z,13.62
2022-10-13T21:48:59.771Z,13.57
2022-10-13T21:51:30.435Z,13.55
2022-10-13T21:54:00.667Z,13.59
2022-10-13T21:56:31.117Z,13.47
2022-10-13T21:58:59.186Z,13.46
2022-10-13T22:01:27.679Z,13.52
2022-10-13T22:03:57.819Z,13.55
2022-10-13T22:06:26.782Z,13.52
2022-10-13T22:08:56.797Z,13.59
2022-10-13T22:11:26.579Z,13.52
2022-10-13T22:13:57.165Z,13.64
2022-10-13T22:16:27.483Z,13.57
2022-10-13T22:18:56.972Z,13.50
2022-10-13T22:21:27.380Z,13.56
2022-10-13T22:23:57.738Z,13.49
2022-10-13T22:26:25.818Z,13.54
2022-10-13T22:28:55.514Z,13.49
2022-10-13T22:31:23.582Z,13.43
2022-10-13T22:33:53.816Z,13.49
2022-10-13T22:36:23.994Z,13.45
2022-10-13T22:38:54.353Z,13.35
2022-10-13T22:41:22.799Z,13.39
2022-10-13T22:43:51.925Z,13.35
2022-10-13T22:46:25.067Z,13.36
2022-10-13T22:48:53.361Z,13.25
2022-10-13T22:51:23.916Z,13.29
2022-10-13T22:53:52.340Z,13.22
2022-10-13T22:56:22.190Z,13.27
2022-10-13T22:58:51.341Z,13.24
2022-10-13T23:01:21.717Z,13.26
2022-10-13T23:03:50.939Z,13.26
2022-10-13T23:06:21.089Z,13.30
2022-10-13T23:08:49.785Z,13.26
2022-10-13T23:11:18.281Z,13.37
2022-10-13T23:13:46.901Z,13.37
2022-10-13T23:16:17.229Z,13.38
2022-10-13T23:18:47.325Z,13.38
2022-10-13T23:21:17.556Z,13.34
2022-10-13T23:23:46.341Z,13.22
2022-10-13T23:26:16.899Z,13.12
2022-10-13T23:28:45.431Z,13.13
2022-10-13T23:31:15.283Z,13.09
2022-10-13T23:33:43.805Z,13.06
2022-10-13T23:36:16.357Z,13.14
2022-10-13T23:38:44.633Z,13.22
2022-10-13T23:41:14.599Z,13.19
2022-10-13T23:43:43.622Z,13.15
2022-10-13T23:46:12.319Z,13.15
2022-10-13T23:48:41.243Z,13.11
2022-10-13T23:51:10.956Z,13.13
2022-10-13T23:53:41.317Z,13.18
2022-10-13T23:56:12.146Z,13.15
2022-10-13T23:58:42.193Z,13.20
